Time;durP1;ratioP1;P1;durP2;ratioP2;P2;SDS_P1;SDS_P2;PMS_P1;PMS_P2;Temp;Humidity;BMP_temperature;BMP_pressure;BME280_temperature;BME280_humidity;BME280_pressure;Samples;Min_cycle;Max_cycle;Signal;HPM_P1;HPM_P2
2023/12/19 00:01:35;;;;;;;6.10;4.30;;;;;;;;;;82073;276;3031558;-36
2023/12/19 00:04:15;;;;;;;6.70;5.10;;;;;;;;;;82084;277;3028910;-35
2023/12/19 00:06:54;;;;;;;7.00;5.10;;;;;;;;;;82090;280;3027589;-36
2023/12/19 00:09:31;;;;;;;6.40;4.40;;;;;;;;;;81961;277;3036974;-35
2023/12/19 00:12:10;;;;;;;6.80;4.80;;;;;;;;;;82107;276;3032042;-35
2023/12/19 00:14:46;;;;;;;6.30;4.20;;;;;;;;;;82951;276;3029111;-36
2023/12/19 00:17:24;;;;;;;6.00;4.30;;;;;;;;;;81994;276;3027879;-36
2023/12/19 00:20:03;;;;;;;5.90;4.20;;;;;;;;;;82073;276;3036583;-35
2023/12/19 00:22:40;;;;;;;6.60;4.40;;;;;;;;;;82046;280;3032712;-35
2023/12/19 00:25:17;;;;;;;5.80;4.30;;;;;;;;;;82076;273;3028461;-35
2023/12/19 00:27:55;;;;;;;6.10;4.40;;;;;;;;;;82026;276;3028099;-35
2023/12/19 00:30:36;;;;;;;7.70;4.60;;;;;;;;;;82004;277;3030951;-35
2023/12/19 00:33:12;;;;;;;6.40;4.60;;;;;;;;;;82053;276;3032075;-35
2023/12/19 00:35:54;;;;;;;6.10;4.30;;;;;;;;;;82077;276;3028752;-35
2023/12/19 00:38:36;;;;;;;6.90;4.20;;;;;;;;;;82057;276;3027420;-35
2023/12/19 00:41:15;;;;;;;6.10;4.40;;;;;;;;;;82087;276;3031672;-35
2023/12/19 00:43:58;;;;;;;6.50;4.50;;;;;;;;;;82062;277;3031103;-35
2023/12/19 00:46:35;;;;;;;6.30;4.10;;;;;;;;;;83469;280;3028216;-36
2023/12/19 00:49:15;;;;;;;6.50;4.30;;;;;;;;;;82051;276;3027633;-36
2023/12/19 00:51:53;;;;;;;6.10;4.30;;;;;;;;;;82057;276;3032626;-36
2023/12/19 00:54:33;;;;;;;5.90;4.30;;;;;;;;;;82036;276;3031593;-36
2023/12/19 00:57:11;;;;;;;5.50;4.20;;;;;;;;;;82035;276;3028470;-35
2023/12/19 00:59:54;;;;;;;6.20;4.30;;;;;;;;;;82005;276;3027199;-36
2023/12/19 01:02:34;;;;;;;6.50;4.70;;;;;;;;;;82075;276;3030722;-36
2023/12/19 01:05:12;;;;;;;6.30;4.50;;;;;;;;;;82044;276;3031423;-35
2023/12/19 01:07:51;;;;;;;6.60;4.40;;;;;;;;;;82057;276;3028703;-36
2023/12/19 01:10:28;;;;;;;6.50;4.50;;;;;;;;;;82009;276;3027306;-35
2023/12/19 01:13:09;;;;;;;6.60;4.40;;;;;;;;;;82052;276;3030764;-35
2023/12/19 01:15:47;;;;;;;6.30;4.60;;;;;;;;;;82741;276;3031299;-35
2023/12/19 01:18:25;;;;;;;6.10;4.40;;;;;;;;;;82088;277;3029024;-36
2023/12/19 01:21:03;;;;;;;5.80;4.20;;;;;;;;;;82015;276;3033948;-36
2023/12/19 01:23:43;;;;;;;6.60;4.40;;;;;;;;;;82084;276;3031193;-35
2023/12/19 01:26:20;;;;;;;5.60;4.40;;;;;;;;;;82074;276;3032211;-35
2023/12/19 01:29:07;;;;;;;6.40;4.70;;;;;;;;;;82035;277;3028611;-35
2023/12/19 01:31:43;;;;;;;6.00;4.20;;;;;;;;;;82065;276;3028288;-35
2023/12/19 01:34:23;;;;;;;7.00;4.70;;;;;;;;;;82591;276;3030482;-35
2023/12/19 01:37:00;;;;;;;6.10;4.20;;;;;;;;;;82082;276;3032802;-35
2023/12/19 01:39:39;;;;;;;6.20;4.50;;;;;;;;;;82052;276;3027974;-35
2023/12/19 01:42:16;;;;;;;6.20;4.50;;;;;;;;;;82089;276;3027990;-35
2023/12/19 01:45:10;;;;;;;5.80;4.10;;;;;;;;;;82065;276;3031546;-35
2023/12/19 01:47:47;;;;;;;5.90;4.20;;;;;;;;;;83458;280;3032111;-36
2023/12/19 01:50:24;;;;;;;6.20;4.00;;;;;;;;;;83444;276;3028472;-36
2023/12/19 01:53:01;;;;;;;6.40;4.10;;;;;;;;;;82332;276;3027748;-36
2023/12/19 01:55:41;;;;;;;5.90;4.40;;;;;;;;;;82037;276;3030506;-35
2023/12/19 01:58:20;;;;;;;6.50;4.20;;;;;;;;;;82302;277;3031706;-35
2023/12/19 02:01:03;;;;;;;5.80;4.20;;;;;;;;;;82001;276;3028211;-35
2023/12/19 02:03:40;;;;;;;6.10;4.30;;;;;;;;;;82019;277;3027376;-36
2023/12/19 02:06:21;;;;;;;6.20;4.10;;;;;;;;;;82101;277;3031144;-35
2023/12/19 02:08:58;;;;;;;6.00;4.10;;;;;;;;;;82096;276;3031923;-35
2023/12/19 02:11:34;;;;;;;6.50;4.10;;;;;;;;;;82041;277;3028253;-36
2023/12/19 02:14:12;;;;;;;6.40;4.40;;;;;;;;;;82100;276;3027970;-36
2023/12/19 02:16:49;;;;;;;5.70;4.10;;;;;;;;;;82058;277;3031035;-36
2023/12/19 02:19:27;;;;;;;6.30;4.60;;;;;;;;;;82102;277;3031090;-36
2023/12/19 02:22:04;;;;;;;5.40;4.00;;;;;;;;;;82060;276;3028836;-35
2023/12/19 02:24:42;;;;;;;6.10;4.20;;;;;;;;;;82094;277;3027933;-35
2023/12/19 02:27:25;;;;;;;6.10;4.20;;;;;;;;;;82056;277;3031210;-35
2023/12/19 02:30:02;;;;;;;5.70;3.60;;;;;;;;;;83436;280;3031109;-36
2023/12/19 02:32:38;;;;;;;6.20;3.90;;;;;;;;;;83426;276;3034507;-36
2023/12/19 02:35:15;;;;;;;5.90;3.90;;;;;;;;;;83462;280;3027253;-36
2023/12/19 02:37:53;;;;;;;5.80;3.90;;;;;;;;;;82694;276;3030375;-35
2023/12/19 02:40:30;;;;;;;6.70;4.10;;;;;;;;;;82051;276;3031271;-36
2023/12/19 02:43:10;;;;;;;5.70;3.80;;;;;;;;;;82042;276;3034455;-35
2023/12/19 02:45:51;;;;;;;5.80;3.60;;;;;;;;;;82042;277;3027447;-35
2023/12/19 02:48:29;;;;;;;5.80;3.90;;;;;;;;;;82072;277;3031148;-35
2023/12/19 02:51:08;;;;;;;5.50;3.90;;;;;;;;;;82027;276;3031550;-36
2023/12/19 02:53:44;;;;;;;5.40;3.60;;;;;;;;;;83455;280;3028358;-36
2023/12/19 02:56:20;;;;;;;5.40;3.50;;;;;;;;;;83438;276;3027194;-36
2023/12/19 02:58:57;;;;;;;6.00;3.80;;;;;;;;;;83461;280;3031046;-36
2023/12/19 03:01:41;;;;;;;6.00;3.70;;;;;;;;;;82034;276;3031020;-35
2023/12/19 03:04:21;;;;;;;5.90;3.60;;;;;;;;;;82087;277;3028637;-35
2023/12/19 03:07:00;;;;;;;5.70;3.80;;;;;;;;;;82040;277;3027458;-35
2023/12/19 03:09:36;;;;;;;5.50;3.50;;;;;;;;;;83426;280;3031176;-36
2023/12/19 03:12:13;;;;;;;5.40;3.70;;;;;;;;;;83421;276;3032067;-36
2023/12/19 03:14:49;;;;;;;5.80;3.80;;;;;;;;;;83437;276;3028497;-36
2023/12/19 03:17:25;;;;;;;5.60;3.60;;;;;;;;;;83470;280;3027724;-36
2023/12/19 03:20:02;;;;;;;5.60;3.30;;;;;;;;;;83320;280;3031116;-35
2023/12/19 03:22:42;;;;;;;5.70;3.50;;;;;;;;;;82043;276;3031845;-35
2023/12/19 03:25:23;;;;;;;5.70;3.50;;;;;;;;;;82099;277;3028710;-35
2023/12/19 03:28:01;;;;;;;5.30;3.50;;;;;;;;;;82078;276;3027913;-35
2023/12/19 03:30:40;;;;;;;5.40;3.50;;;;;;;;;;82083;276;3031571;-35
2023/12/19 03:33:18;;;;;;;5.90;3.90;;;;;;;;;;82027;276;3031477;-35
2023/12/19 03:36:00;;;;;;;5.60;3.80;;;;;;;;;;82073;276;3028588;-35
2023/12/19 03:38:37;;;;;;;5.70;3.80;;;;;;;;;;82068;276;3027949;-36
2023/12/19 03:41:14;;;;;;;5.30;3.40;;;;;;;;;;82102;280;3030706;-35
2023/12/19 03:43:53;;;;;;;5.10;3.30;;;;;;;;;;82072;276;3031736;-35
2023/12/19 03:46:30;;;;;;;5.30;3.20;;;;;;;;;;82101;277;3028811;-35
2023/12/19 03:49:07;;;;;;;5.00;3.40;;;;;;;;;;82098;276;3027633;-36
2023/12/19 03:51:47;;;;;;;5.20;3.50;;;;;;;;;;82087;276;3031067;-36
2023/12/19 03:54:27;;;;;;;4.80;3.20;;;;;;;;;;82069;277;3038305;-36
2023/12/19 03:57:10;;;;;;;5.60;3.50;;;;;;;;;;82045;276;3028671;-35
2023/12/19 03:59:49;;;;;;;5.20;3.60;;;;;;;;;;82095;280;3027347;-36
2023/12/19 04:02:31;;;;;;;5.30;3.40;;;;;;;;;;82041;277;3029911;-36
2023/12/19 04:05:11;;;;;;;5.50;3.60;;;;;;;;;;82091;277;3031830;-36
2023/12/19 04:07:51;;;;;;;5.10;3.20;;;;;;;;;;82965;277;3028530;-36
2023/12/19 04:10:29;;;;;;;6.40;3.60;;;;;;;;;;82086;277;3027566;-35
2023/12/19 04:13:10;;;;;;;5.10;3.20;;;;;;;;;;82052;276;3033444;-35
2023/12/19 04:15:50;;;;;;;5.90;3.80;;;;;;;;;;82068;276;3031973;-35
2023/12/19 04:18:26;;;;;;;5.40;3.70;;;;;;;;;;82057;276;3028352;-35
2023/12/19 04:21:10;;;;;;;5.90;3.70;;;;;;;;;;82077;277;3027352;-35
2023/12/19 04:23:46;;;;;;;5.30;3.50;;;;;;;;;;83074;276;3030420;-36
2023/12/19 04:26:27;;;;;;;5.70;3.50;;;;;;;;;;82093;276;3031748;-35
2023/12/19 04:29:04;;;;;;;5.80;3.60;;;;;;;;;;83451;276;3028550;-36
2023/12/19 04:31:42;;;;;;;5.70;3.50;;;;;;;;;;82155;276;3027298;-35
2023/12/19 04:34:19;;;;;;;5.80;3.50;;;;;;;;;;82060;276;3030582;-35
2023/12/19 04:36:56;;;;;;;5.80;3.50;;;;;;;;;;82089;276;3031284;-36
2023/12/19 04:39:33;;;;;;;5.70;3.50;;;;;;;;;;82070;277;3028734;-35
2023/12/19 04:42:17;;;;;;;6.10;3.50;;;;;;;;;;82051;276;3027833;-35
2023/12/19 04:44:54;;;;;;;6.40;3.30;;;;;;;;;;82037;276;3032674;-35
2023/12/19 04:47:34;;;;;;;5.70;3.50;;;;;;;;;;82054;276;3031813;-35
2023/12/19 04:50:13;;;;;;;6.20;3.50;;;;;;;;;;82050;277;3028465;-35
2023/12/19 04:52:49;;;;;;;5.70;3.60;;;;;;;;;;83462;280;3027893;-36
2023/12/19 04:55:26;;;;;;;5.80;3.80;;;;;;;;;;83431;276;3030521;-35
2023/12/19 04:58:04;;;;;;;5.80;3.50;;;;;;;;;;82139;276;3032018;-35
2023/12/19 05:00:45;;;;;;;5.40;3.20;;;;;;;;;;82082;276;3029054;-35
2023/12/19 05:03:22;;;;;;;5.30;3.40;;;;;;;;;;83455;280;3027948;-36
2023/12/19 05:05:58;;;;;;;6.00;3.40;;;;;;;;;;83431;280;3037016;-36
2023/12/19 05:08:36;;;;;;;5.20;3.30;;;;;;;;;;82554;276;3031651;-36
2023/12/19 05:11:17;;;;;;;5.70;3.60;;;;;;;;;;82057;276;3028295;-35
2023/12/19 05:13:55;;;;;;;5.70;3.40;;;;;;;;;;82072;277;3027101;-35
2023/12/19 05:16:33;;;;;;;6.30;3.40;;;;;;;;;;82070;276;3037336;-35
2023/12/19 05:19:10;;;;;;;5.60;3.70;;;;;;;;;;82062;277;3032002;-35
2023/12/19 05:21:49;;;;;;;5.60;3.60;;;;;;;;;;82088;277;3028582;-35
2023/12/19 05:24:32;;;;;;;5.80;3.70;;;;;;;;;;82085;276;3028079;-35
2023/12/19 05:27:09;;;;;;;6.00;3.60;;;;;;;;;;82058;276;3030558;-35
2023/12/19 05:29:46;;;;;;;6.30;3.30;;;;;;;;;;83454;280;3031352;-36
2023/12/19 05:32:25;;;;;;;5.80;3.50;;;;;;;;;;82784;276;3028054;-36
2023/12/19 05:35:06;;;;;;;6.30;3.50;;;;;;;;;;82085;276;3027237;-35
2023/12/19 05:37:44;;;;;;;5.90;3.50;;;;;;;;;;82350;276;3030462;-36
2023/12/19 05:40:25;;;;;;;5.70;3.70;;;;;;;;;;82086;276;3031915;-35
2023/12/19 05:43:08;;;;;;;5.70;3.30;;;;;;;;;;82082;276;3028427;-35
2023/12/19 05:45:47;;;;;;;5.70;3.10;;;;;;;;;;82074;277;3027068;-35
2023/12/19 05:48:26;;;;;;;6.50;3.60;;;;;;;;;;82100;276;3031073;-36
2023/12/19 05:51:05;;;;;;;5.60;3.60;;;;;;;;;;82084;276;3031269;-35
2023/12/19 05:53:42;;;;;;;5.40;3.40;;;;;;;;;;83459;280;3028933;-36
2023/12/19 05:56:20;;;;;;;5.40;3.40;;;;;;;;;;82112;276;3026946;-36
2023/12/19 05:58:57;;;;;;;5.70;3.40;;;;;;;;;;82044;276;3030954;-35
2023/12/19 06:01:35;;;;;;;6.10;3.60;;;;;;;;;;82114;276;3031338;-35
2023/12/19 06:04:17;;;;;;;5.00;3.20;;;;;;;;;;82057;276;3028219;-35
2023/12/19 06:06:55;;;;;;;5.70;3.40;;;;;;;;;;82057;277;3027200;-35
2023/12/19 06:09:38;;;;;;;5.50;3.30;;;;;;;;;;82078;277;3031087;-36
2023/12/19 06:12:18;;;;;;;5.40;3.70;;;;;;;;;;82048;277;3031353;-35
2023/12/19 06:14:54;;;;;;;5.80;3.80;;;;;;;;;;82086;276;3027935;-35
2023/12/19 06:17:32;;;;;;;6.00;3.70;;;;;;;;;;82023;277;3027611;-35
2023/12/19 06:20:11;;;;;;;5.30;3.50;;;;;;;;;;82059;277;3031143;-35
2023/12/19 06:22:48;;;;;;;5.90;3.30;;;;;;;;;;82077;277;3031775;-35
2023/12/19 06:25:27;;;;;;;5.30;3.30;;;;;;;;;;82078;277;3028211;-35
2023/12/19 06:28:09;;;;;;;5.90;3.60;;;;;;;;;;81879;277;3193432;-35
2023/12/19 06:30:46;;;;;;;5.30;3.20;;;;;;;;;;83405;281;3030649;-36
2023/12/19 06:33:23;;;;;;;5.40;3.30;;;;;;;;;;83414;276;3031377;-36
2023/12/19 06:36:01;;;;;;;5.10;3.20;;;;;;;;;;83421;276;3029518;-36
2023/12/19 06:38:39;;;;;;;5.80;3.30;;;;;;;;;;83386;281;3027815;-36
2023/12/19 06:41:21;;;;;;;5.40;3.30;;;;;;;;;;83312;277;3030396;-36
2023/12/19 06:44:03;;;;;;;5.40;3.40;;;;;;;;;;83294;280;3031298;-36
2023/12/19 06:46:42;;;;;;;5.40;3.60;;;;;;;;;;82065;276;3028846;-36
2023/12/19 06:49:24;;;;;;;5.80;3.50;;;;;;;;;;82116;277;3027868;-35
2023/12/19 06:52:01;;;;;;;5.30;3.60;;;;;;;;;;82072;277;3031037;-36
2023/12/19 06:54:41;;;;;;;5.10;3.50;;;;;;;;;;82060;277;3033034;-36
2023/12/19 06:57:17;;;;;;;5.10;3.20;;;;;;;;;;82066;281;3028109;-35
2023/12/19 06:59:54;;;;;;;5.40;3.30;;;;;;;;;;82077;276;3027189;-36
2023/12/19 07:02:36;;;;;;;5.30;3.30;;;;;;;;;;82077;277;3030489;-35
2023/12/19 07:05:13;;;;;;;5.90;3.50;;;;;;;;;;83431;280;3031915;-36
2023/12/19 07:07:51;;;;;;;5.10;3.30;;;;;;;;;;83411;280;3028105;-36
2023/12/19 07:10:28;;;;;;;5.20;3.40;;;;;;;;;;83418;281;3027977;-36
2023/12/19 07:13:04;;;;;;;5.30;3.20;;;;;;;;;;83417;280;3031131;-36
2023/12/19 07:15:42;;;;;;;5.30;3.20;;;;;;;;;;83310;281;3032489;-36
2023/12/19 07:18:19;;;;;;;5.10;3.30;;;;;;;;;;82076;277;3028247;-36
2023/12/19 07:20:59;;;;;;;5.00;3.20;;;;;;;;;;82097;277;3027966;-35
2023/12/19 07:23:39;;;;;;;5.40;3.30;;;;;;;;;;82076;277;3031215;-36
2023/12/19 07:26:26;;;;;;;6.00;3.40;;;;;;;;;;82117;276;3031977;-35
2023/12/19 07:29:08;;;;;;;5.20;3.20;;;;;;;;;;82069;277;3028525;-35
2023/12/19 07:31:45;;;;;;;5.30;3.50;;;;;;;;;;82058;277;3027653;-36
2023/12/19 07:34:22;;;;;;;5.00;3.20;;;;;;;;;;83467;280;3031123;-36
2023/12/19 07:36:58;;;;;;;5.10;3.30;;;;;;;;;;82843;276;3031373;-36
2023/12/19 07:39:35;;;;;;;5.50;3.30;;;;;;;;;;82037;277;3034572;-36
2023/12/19 07:42:17;;;;;;;4.70;3.10;;;;;;;;;;82077;276;3027831;-36
2023/12/19 07:44:54;;;;;;;5.30;3.20;;;;;;;;;;83417;280;3031202;-36
2023/12/19 07:47:31;;;;;;;5.80;3.20;;;;;;;;;;82297;276;3031891;-36
2023/12/19 07:50:12;;;;;;;5.40;3.40;;;;;;;;;;82076;277;3034987;-36
2023/12/19 07:52:49;;;;;;;5.80;3.40;;;;;;;;;;82297;276;3027226;-35
2023/12/19 07:55:31;;;;;;;6.10;3.40;;;;;;;;;;82050;276;3031151;-35
2023/12/19 07:58:12;;;;;;;5.50;3.30;;;;;;;;;;82040;276;3031389;-36
2023/12/19 08:00:50;;;;;;;5.60;3.40;;;;;;;;;;82083;277;3028688;-35
2023/12/19 08:03:30;;;;;;;6.00;3.50;;;;;;;;;;83103;276;3027136;-36
2023/12/19 08:06:08;;;;;;;5.40;3.20;;;;;;;;;;83441;276;3030984;-36
2023/12/19 08:08:47;;;;;;;5.40;3.30;;;;;;;;;;82313;276;3032484;-35
2023/12/19 08:11:28;;;;;;;5.30;3.00;;;;;;;;;;82106;276;3028515;-35
2023/12/19 08:14:08;;;;;;;5.30;3.30;;;;;;;;;;82065;276;3027613;-35
2023/12/19 08:16:46;;;;;;;5.80;3.60;;;;;;;;;;82308;276;3031082;-36
2023/12/19 08:19:23;;;;;;;5.20;3.50;;;;;;;;;;82036;277;3032025;-35
2023/12/19 08:22:01;;;;;;;5.10;3.20;;;;;;;;;;82065;276;3028553;-35
2023/12/19 08:24:38;;;;;;;6.00;3.30;;;;;;;;;;82062;276;3028077;-35
2023/12/19 08:27:18;;;;;;;5.20;3.30;;;;;;;;;;82081;276;3031357;-36
2023/12/19 08:29:57;;;;;;;5.40;3.50;;;;;;;;;;82011;276;3031654;-36
2023/12/19 08:32:34;;;;;;;5.50;3.20;;;;;;;;;;83412;280;3028519;-36
2023/12/19 08:35:12;;;;;;;4.90;3.10;;;;;;;;;;83059;276;3028356;-36
2023/12/19 08:37:52;;;;;;;5.20;2.90;;;;;;;;;;82065;276;3030511;-36
2023/12/19 08:40:30;;;;;;;4.80;2.90;;;;;;;;;;82056;276;3031717;-35
2023/12/19 08:43:07;;;;;;;6.10;3.20;;;;;;;;;;82074;276;3028123;-35
2023/12/19 08:45:44;;;;;;;6.00;3.10;;;;;;;;;;83227;280;3027648;-36
2023/12/19 08:48:26;;;;;;;5.20;2.90;;;;;;;;;;82088;276;3031588;-35
2023/12/19 08:51:09;;;;;;;5.20;3.10;;;;;;;;;;82052;276;3031291;-35
2023/12/19 08:54:05;;;;;;;5.40;2.90;;;;;;;;;;83282;277;3027953;-36
2023/12/19 08:56:46;;;;;;;5.20;3.30;;;;;;;;;;81894;273;3027598;-38
2023/12/19 08:59:31;;;;;;;5.80;3.30;;;;;;;;;;83391;277;3030529;-39
2023/12/19 09:02:17;;;;;;;5.30;3.20;;;;;;;;;;83398;281;3031337;-34
2023/12/19 09:05:03;;;;;;;5.60;3.00;;;;;;;;;;83408;277;3028621;-33
2023/12/19 09:08:00;;;;;;;5.80;3.10;;;;;;;;;;83417;281;3027193;-34
2023/12/19 09:10:53;;;;;;;5.50;3.30;;;;;;;;;;83389;281;3031021;-33
2023/12/19 09:16:06;;;;;;;5.00;3.10;;;;;;;;;;82268;311;3011442;-32
2023/12/19 09:18:52;;;;;;;5.30;2.90;;;;;;;;;;81723;290;3028040;-33
2023/12/19 09:21:42;;;;;;;4.90;3.10;;;;;;;;;;83120;286;3027814;-32
2023/12/19 09:24:31;;;;;;;4.80;2.80;;;;;;;;;;83098;286;3030441;-33
2023/12/19 09:27:25;;;;;;;5.00;3.00;;;;;;;;;;83322;278;3037431;-32
2023/12/19 09:30:24;;;;;;;5.20;3.10;;;;;;;;;;82255;307;3012565;-31
2023/12/19 09:33:20;;;;;;;4.90;2.80;;;;;;;;;;83450;278;3028047;-32
2023/12/19 09:36:08;;;;;;;5.10;3.00;;;;;;;;;;82089;274;3027506;-31
2023/12/19 09:38:51;;;;;;;4.50;2.80;;;;;;;;;;82201;274;3031200;-31
2023/12/19 09:41:31;;;;;;;5.10;3.10;;;;;;;;;;83465;278;3037768;-32
2023/12/19 09:44:08;;;;;;;5.80;3.30;;;;;;;;;;83366;277;3028202;-31
2023/12/19 09:47:07;;;;;;;5.30;3.00;;;;;;;;;;83499;276;3027606;-32
2023/12/19 09:49:58;;;;;;;5.30;2.80;;;;;;;;;;83498;276;3030725;-32
2023/12/19 09:52:45;;;;;;;7.10;3.20;;;;;;;;;;83206;276;3031467;-32
2023/12/19 09:55:44;;;;;;;4.90;2.60;;;;;;;;;;83537;276;3028450;-33
2023/12/19 09:58:36;;;;;;;5.90;3.10;;;;;;;;;;83476;273;3026927;-34
2023/12/19 10:01:19;;;;;;;6.00;3.10;;;;;;;;;;82248;273;3030911;-34
2023/12/19 10:04:13;;;;;;;4.70;2.90;;;;;;;;;;83442;276;3031305;-34
2023/12/19 10:07:20;;;;;;;4.60;2.70;;;;;;;;;;82318;307;3011130;-32
2023/12/19 10:10:03;;;;;;;4.40;2.70;;;;;;;;;;81736;285;3028635;-32
2023/12/19 10:12:53;;;;;;;5.30;3.10;;;;;;;;;;81777;283;3027366;-35
2023/12/19 10:15:36;;;;;;;5.00;2.90;;;;;;;;;;81827;283;3030803;-36
2023/12/19 10:18:27;;;;;;;4.90;3.20;;;;;;;;;;81857;279;3037759;-36
2023/12/19 10:21:32;;;;;;;4.80;2.80;;;;;;;;;;82398;286;3979394;-37
2023/12/19 10:24:13;;;;;;;5.10;3.20;;;;;;;;;;83290;282;3027411;-36
2023/12/19 10:27:06;;;;;;;5.60;2.90;;;;;;;;;;83325;282;3030428;-37
2023/12/19 10:29:45;;;;;;;5.10;3.00;;;;;;;;;;82297;276;3031016;-37
2023/12/19 10:32:29;;;;;;;4.70;2.90;;;;;;;;;;82080;276;3028806;-37
2023/12/19 10:35:20;;;;;;;5.30;3.10;;;;;;;;;;82035;276;3027466;-35
2023/12/19 10:38:13;;;;;;;5.00;3.00;;;;;;;;;;83414;280;3030397;-35
2023/12/19 10:41:05;;;;;;;5.10;2.90;;;;;;;;;;83385;280;3031338;-36
2023/12/19 10:43:53;;;;;;;4.90;2.90;;;;;;;;;;83409;280;3028401;-41
2023/12/19 10:46:43;;;;;;;5.70;3.20;;;;;;;;;;83418;280;3027727;-45
2023/12/19 10:49:20;;;;;;;5.20;2.80;;;;;;;;;;83443;280;3030506;-44
2023/12/19 10:52:06;;;;;;;4.90;3.00;;;;;;;;;;83401;277;3031049;-44
2023/12/19 10:54:45;;;;;;;5.20;3.00;;;;;;;;;;83419;280;3028371;-43
2023/12/19 10:57:23;;;;;;;4.70;2.90;;;;;;;;;;83421;277;3028031;-44
2023/12/19 11:00:21;;;;;;;5.00;3.10;;;;;;;;;;83449;277;3030740;-39
2023/12/19 11:03:27;;;;;;;5.10;2.90;;;;;;;;;;83404;280;3037495;-42
2023/12/19 11:06:20;;;;;;;4.80;2.70;;;;;;;;;;83449;276;3027888;-42
2023/12/19 11:09:05;;;;;;;4.80;2.60;;;;;;;;;;83546;280;3027713;-44
2023/12/19 11:11:47;;;;;;;5.00;2.90;;;;;;;;;;83483;280;3030793;-38
2023/12/19 11:14:34;;;;;;;4.90;2.90;;;;;;;;;;82307;276;3031206;-35
2023/12/19 11:17:20;;;;;;;5.60;3.20;;;;;;;;;;82143;276;3028885;-37
2023/12/19 11:20:06;;;;;;;5.10;2.90;;;;;;;;;;83469;280;3027355;-39
2023/12/19 11:23:16;;;;;;;;;;;;;;;;;;83398;277;3031180;-37
2023/12/19 11:26:19;;;;;;;4.80;2.80;;;;;;;;;;83319;280;3038445;-40
2023/12/19 11:29:13;;;;;;;5.20;2.90;;;;;;;;;;83479;276;3028985;-37
2023/12/19 11:31:55;;;;;;;5.30;2.90;;;;;;;;;;82569;281;3027431;-37
2023/12/19 11:34:35;;;;;;;5.00;3.00;;;;;;;;;;81965;277;3030689;-37
2023/12/19 11:37:24;;;;;;;5.70;2.90;;;;;;;;;;82020;277;3031334;-36
2023/12/19 11:40:10;;;;;;;4.60;2.70;;;;;;;;;;81997;277;3028703;-37
2023/12/19 11:42:53;;;;;;;4.70;2.70;;;;;;;;;;82613;277;3027787;-38
2023/12/19 11:45:47;;;;;;;4.60;2.70;;;;;;;;;;82656;277;3030369;-40
2023/12/19 11:48:55;;;;;;;4.90;2.90;;;;;;;;;;83383;280;3031767;-34
2023/12/19 11:51:55;;;;;;;4.70;2.70;;;;;;;;;;83355;280;3028650;-34
2023/12/19 11:54:33;;;;;;;4.90;2.90;;;;;;;;;;82658;277;3027950;-34
2023/12/19 11:57:25;;;;;;;5.00;2.90;;;;;;;;;;82046;276;3031138;-32
2023/12/19 12:00:20;;;;;;;5.20;3.10;;;;;;;;;;82058;276;3031744;-33
2023/12/19 12:03:06;;;;;;;5.00;2.70;;;;;;;;;;83033;276;3028347;-33
2023/12/19 12:05:46;;;;;;;4.60;2.60;;;;;;;;;;81978;276;3027573;-34
2023/12/19 12:08:28;;;;;;;4.80;2.70;;;;;;;;;;82052;276;3031207;-33
2023/12/19 12:11:14;;;;;;;5.10;2.90;;;;;;;;;;83439;280;3031858;-33
2023/12/19 12:14:05;;;;;;;4.90;2.80;;;;;;;;;;82615;276;3028532;-32
2023/12/19 12:16:58;;;;;;;4.80;2.80;;;;;;;;;;83384;280;3027795;-34
2023/12/19 12:19:40;;;;;;;5.30;2.90;;;;;;;;;;82075;273;3031307;-34
2023/12/19 12:22:21;;;;;;;4.60;2.90;;;;;;;;;;82061;276;3031418;-34
2023/12/19 12:25:03;;;;;;;4.80;2.80;;;;;;;;;;82086;276;3028632;-34
2023/12/19 12:27:44;;;;;;;4.60;2.70;;;;;;;;;;83445;280;3027144;-35
2023/12/19 12:30:34;;;;;;;4.70;2.80;;;;;;;;;;82807;276;3030552;-35
2023/12/19 12:33:23;;;;;;;5.00;2.80;;;;;;;;;;83402;281;3031076;-35
2023/12/19 12:36:20;;;;;;;5.60;3.00;;;;;;;;;;83401;277;3028114;-37
2023/12/19 12:39:05;;;;;;;4.90;2.90;;;;;;;;;;82174;277;3032966;-35
2023/12/19 12:41:45;;;;;;;5.90;2.90;;;;;;;;;;82048;276;3030862;-33
2023/12/19 12:44:28;;;;;;;4.90;2.90;;;;;;;;;;82079;276;3032831;-33
2023/12/19 12:47:12;;;;;;;4.60;2.80;;;;;;;;;;82051;275;3028592;-33
2023/12/19 12:50:04;;;;;;;5.20;2.80;;;;;;;;;;83442;276;3027686;-33
2023/12/19 12:52:51;;;;;;;4.90;2.60;;;;;;;;;;82509;272;3031423;-34
2023/12/19 12:55:36;;;;;;;4.80;2.70;;;;;;;;;;83513;272;3031344;-33
2023/12/19 12:58:20;;;;;;;4.80;2.60;;;;;;;;;;83112;272;3028433;-32
2023/12/19 13:00:57;;;;;;;5.00;2.90;;;;;;;;;;82240;272;3027351;-33
2023/12/19 13:03:43;;;;;;;4.90;3.00;;;;;;;;;;82219;272;3030907;-32
2023/12/19 13:06:26;;;;;;;4.80;2.70;;;;;;;;;;82229;272;3031320;-33
2023/12/19 13:09:13;;;;;;;4.80;2.60;;;;;;;;;;83505;272;3028079;-33
2023/12/19 13:11:57;;;;;;;4.40;2.60;;;;;;;;;;83535;272;3027576;-33
2023/12/19 13:14:34;;;;;;;5.10;2.60;;;;;;;;;;83534;272;3030855;-35
2023/12/19 13:17:10;;;;;;;4.70;2.70;;;;;;;;;;83519;275;3032526;-33
2023/12/19 13:19:53;;;;;;;4.90;2.80;;;;;;;;;;83535;275;3027752;-33
2023/12/19 13:22:36;;;;;;;4.70;2.70;;;;;;;;;;82714;272;3027444;-33
2023/12/19 13:25:36;;;;;;;5.40;2.90;;;;;;;;;;82420;272;3030486;-34
2023/12/19 13:28:24;;;;;;;4.70;2.80;;;;;;;;;;83478;276;3031652;-38
2023/12/19 13:31:11;;;;;;;4.80;2.80;;;;;;;;;;83520;275;3028080;-38
2023/12/19 13:34:00;;;;;;;5.70;2.80;;;;;;;;;;83563;275;3027865;-37
2023/12/19 13:36:43;;;;;;;4.90;2.80;;;;;;;;;;83429;275;3032229;-37
2023/12/19 13:39:24;;;;;;;4.50;2.70;;;;;;;;;;82246;272;3031650;-37
2023/12/19 13:42:11;;;;;;;5.30;2.90;;;;;;;;;;82271;272;3028128;-34
2023/12/19 13:44:54;;;;;;;4.20;2.50;;;;;;;;;;83292;272;3027474;-33
2023/12/19 13:47:45;;;;;;;5.00;2.60;;;;;;;;;;82227;272;3031426;-36
2023/12/19 13:50:28;;;;;;;4.90;2.40;;;;;;;;;;82274;272;3031526;-36
2023/12/19 13:53:12;;;;;;;5.30;3.10;;;;;;;;;;82236;272;3028219;-36
2023/12/19 13:55:57;;;;;;;4.80;2.70;;;;;;;;;;83567;272;3027946;-36
2023/12/19 13:58:45;;;;;;;4.50;2.70;;;;;;;;;;82479;272;3031393;-35
2023/12/19 14:01:31;;;;;;;4.40;2.60;;;;;;;;;;82244;272;3031058;-36
2023/12/19 14:04:23;;;;;;;4.70;2.60;;;;;;;;;;82305;272;3028634;-36
2023/12/19 14:07:14;;;;;;;4.90;2.90;;;;;;;;;;83540;272;3028045;-36
2023/12/19 14:10:00;;;;;;;5.80;2.80;;;;;;;;;;83510;276;3031487;-37
2023/12/19 14:12:49;;;;;;;4.70;2.70;;;;;;;;;;82351;272;3031474;-36
2023/12/19 14:15:31;;;;;;;5.60;2.80;;;;;;;;;;82456;272;3028382;-36
2023/12/19 14:18:16;;;;;;;5.20;2.60;;;;;;;;;;83569;276;3027378;-37
2023/12/19 14:21:11;;;;;;;5.10;3.00;;;;;;;;;;83511;273;3030870;-38
2023/12/19 14:24:03;;;;;;;5.20;2.90;;;;;;;;;;82280;311;3011732;-37
2023/12/19 14:26:53;;;;;;;4.50;2.60;;;;;;;;;;81722;286;3028469;-37
2023/12/19 14:29:40;;;;;;;5.00;2.80;;;;;;;;;;82022;289;3027609;-35
2023/12/19 14:32:24;;;;;;;5.40;2.80;;;;;;;;;;83326;283;3030617;-34
2023/12/19 14:35:15;;;;;;;5.50;2.70;;;;;;;;;;82588;279;3038005;-35
2023/12/19 14:38:03;;;;;;;4.70;2.80;;;;;;;;;;82076;278;3617410;-35
2023/12/19 14:40:44;;;;;;;5.80;2.90;;;;;;;;;;82017;277;3028804;-36
2023/12/19 14:43:35;;;;;;;5.10;2.70;;;;;;;;;;81996;277;3030615;-40
2023/12/19 14:46:14;;;;;;;5.00;3.00;;;;;;;;;;83238;277;3031430;-38
2023/12/19 14:48:54;;;;;;;6.20;3.30;;;;;;;;;;82090;277;3028858;-38
2023/12/19 14:51:43;;;;;;;5.20;3.00;;;;;;;;;;82269;277;3027770;-37
2023/12/19 14:54:29;;;;;;;5.50;2.90;;;;;;;;;;83198;277;3030353;-39
2023/12/19 14:57:28;;;;;;;5.60;3.00;;;;;;;;;;82949;277;3031828;-37
2023/12/19 15:00:24;;;;;;;5.80;3.10;;;;;;;;;;82519;276;3029434;-40
2023/12/19 15:03:08;;;;;;;5.60;2.90;;;;;;;;;;83456;280;3027979;-38
2023/12/19 15:05:49;;;;;;;6.30;2.80;;;;;;;;;;83440;280;3030943;-39
2023/12/19 15:08:38;;;;;;;5.10;3.00;;;;;;;;;;82395;276;3031387;-38
2023/12/19 15:11:23;;;;;;;5.10;3.10;;;;;;;;;;82115;276;3028283;-38
2023/12/19 15:14:07;;;;;;;5.30;3.10;;;;;;;;;;82069;276;3027724;-38
2023/12/19 15:16:55;;;;;;;5.30;2.90;;;;;;;;;;81985;280;3030996;-38
2023/12/19 15:19:42;;;;;;;4.90;2.70;;;;;;;;;;82446;276;3031808;-37
2023/12/19 15:22:23;;;;;;;5.30;3.00;;;;;;;;;;83032;280;3028425;-36
2023/12/19 15:25:12;;;;;;;5.60;3.10;;;;;;;;;;82247;276;3027723;-34
2023/12/19 15:27:57;;;;;;;5.20;3.10;;;;;;;;;;82873;276;3030498;-33
2023/12/19 15:30:57;;;;;;;5.70;3.10;;;;;;;;;;82087;280;3032075;-35
2023/12/19 15:33:44;;;;;;;5.00;2.90;;;;;;;;;;82217;276;3028569;-35
2023/12/19 15:36:30;;;;;;;5.20;3.10;;;;;;;;;;82115;277;3027495;-35
2023/12/19 15:39:16;;;;;;;5.50;2.90;;;;;;;;;;82113;277;3031612;-35
2023/12/19 15:42:03;;;;;;;5.40;3.20;;;;;;;;;;82092;277;3033155;-34
2023/12/19 15:44:53;;;;;;;4.80;2.80;;;;;;;;;;82538;277;3027887;-35
2023/12/19 15:47:38;;;;;;;4.90;2.90;;;;;;;;;;82213;276;3027269;-35
2023/12/19 15:50:21;;;;;;;5.10;3.10;;;;;;;;;;82044;277;3031228;-34
2023/12/19 15:52:59;;;;;;;5.70;2.90;;;;;;;;;;82238;277;3031101;-34
2023/12/19 15:55:37;;;;;;;4.80;2.70;;;;;;;;;;83457;276;3028100;-34
2023/12/19 15:58:20;;;;;;;5.80;3.20;;;;;;;;;;83452;280;3027672;-34
2023/12/19 16:01:07;;;;;;;4.80;2.60;;;;;;;;;;82282;277;3036550;-34
2023/12/19 16:03:55;;;;;;;4.70;2.80;;;;;;;;;;82565;281;3031781;-35